Terminal Aerodrome Forecast
Issued by NWS Wilmington, OH

Home | Current Version | Previous Version | Text Only | Print | Product List | Glossary On
Versions: 1 2 3 4 5 6 7 8 9 10 11 12 13 14 15 16 17 18 19
427
FTUS41 KILN 290526
TAFILN
TAF
KILN 290526Z 2906/3006 04009KT P6SM OVC013
     FM291400 05007KT P6SM BKN025
     FM291700 05010KT P6SM SCT035
     FM292100 07008KT P6SM BKN200=

USA.gov is the U.S. government's official web portal to all federal, state and local government web resources and services.